URKR weather

Armavir Air Base
Armavir, Krasnodar Krai, Russia

Public forecast

Using degrees Celsius for public forecast. Weather courtesy of forecast.io.

METAR (pilot weather report)

Closest report is Stavropol Shpakovskoye Airport, 43.6 nm (80.7 km) ENE. Retrieved 2019/08/23 01:30 UTC (15 minutes ago):

URMT 230130Z 00000MPS CAVOK 18/07 Q1014 R07/010070 NOSIG RMK QFE721

TAF (pilot weather forecast)

Forecast is more than 12 hours old.

Closest forecast is Stavropol Shpakovskoye Airport, 43.6 nm (80.7 km) ENE. Retrieved 2019/08/03 03:15 UTC (20 days ago):

TAF URMT 030200Z 0303/0321 31005G12MPS 9999 SCT020